createdAt,value
2022-12-18T00:01:25.783Z,21.75
2022-12-18T00:03:54.741Z,21.75
2022-12-18T00:06:23.330Z,21.65
2022-12-18T00:08:50.166Z,21.02
2022-12-18T00:11:19.881Z,18.90
2022-12-18T00:13:47.780Z,20.85
2022-12-18T00:16:23.075Z,22.10
2022-12-18T00:18:52.172Z,22.33
2022-12-18T00:21:20.494Z,21.13
2022-12-18T00:23:48.989Z,17.03
2022-12-18T00:26:22.773Z,20.17
2022-12-18T00:28:53.095Z,19.92
2022-12-18T00:31:23.889Z,22.98
2022-12-18T00:33:55.318Z,21.73
2022-12-18T00:36:25.805Z,22.23
2022-12-18T00:38:53.980Z,22.48
2022-12-18T00:41:40.623Z,21.55
2022-12-18T00:44:10.327Z,22.33
2022-12-18T00:46:37.721Z,23.02
2022-12-18T00:49:05.117Z,22.87
2022-12-18T00:51:32.243Z,21.98
2022-12-18T00:53:59.346Z,18.25
2022-12-18T00:56:26.838Z,17.13
2022-12-18T00:58:54.122Z,16.63
2022-12-18T01:01:21.723Z,17.87
2022-12-18T01:03:48.972Z,16.88
2022-12-18T01:06:17.761Z,15.75
2022-12-18T01:08:45.200Z,18.85
2022-12-18T01:11:16.833Z,22.75
2022-12-18T01:13:44.215Z,21.90
2022-12-18T01:16:14.249Z,21.83
2022-12-18T01:18:41.206Z,21.95
2022-12-18T01:21:09.963Z,21.98
2022-12-18T01:23:38.421Z,23.15
2022-12-18T01:26:11.275Z,21.63
2022-12-18T01:28:39.264Z,21.45
2022-12-18T01:31:34.681Z,23.30
2022-12-18T01:34:04.162Z,23.73
2022-12-18T01:36:34.990Z,23.30
2022-12-18T01:39:07.591Z,17.73
2022-12-18T01:41:54.969Z,20.88
2022-12-18T01:44:59.355Z,22.10
2022-12-18T01:47:49.121Z,18.08
2022-12-18T01:50:22.022Z,22.30
2022-12-18T01:53:03.202Z,20.23
2022-12-18T01:55:33.287Z,21.73
2022-12-18T01:58:02.056Z,21.55
2022-12-18T02:00:29.395Z,21.70
2022-12-18T02:02:57.316Z,21.10
2022-12-18T02:05:39.159Z,21.87
2022-12-18T02:08:30.148Z,21.35
2022-12-18T02:11:06.481Z,18.63
2022-12-18T02:13:47.120Z,21.13
2022-12-18T02:16:20.012Z,19.63
2022-12-18T02:18:52.135Z,20.17
2022-12-18T02:21:27.407Z,21.77
2022-12-18T02:24:49.294Z,21.13
2022-12-18T02:27:16.714Z,19.38
2022-12-18T02:29:57.933Z,20.05
2022-12-18T02:32:29.905Z,18.17
2022-12-18T02:34:58.961Z,20.55
2022-12-18T02:37:29.399Z,20.13
2022-12-18T02:40:00.672Z,19.52
2022-12-18T02:42:29.103Z,18.63
2022-12-18T02:44:56.366Z,18.93
2022-12-18T02:47:30.589Z,19.30
2022-12-18T02:50:14.687Z,19.40
2022-12-18T02:53:05.983Z,19.25
2022-12-18T02:55:52.604Z,19.27
2022-12-18T02:58:41.449Z,19.37
2022-12-18T03:01:22.858Z,18.48
2022-12-18T03:04:00.687Z,19.08
2022-12-18T03:06:33.063Z,19.30
2022-12-18T03:09:05.555Z,17.27
2022-12-18T03:11:56.445Z,18.90
2022-12-18T03:14:26.543Z,18.52
2022-12-18T03:16:58.889Z,18.08
2022-12-18T03:19:29.229Z,18.15
2022-12-18T03:22:03.267Z,17.60
2022-12-18T03:24:40.591Z,17.83
2022-12-18T03:27:14.163Z,18.00
2022-12-18T03:29:50.571Z,19.08
2022-12-18T03:32:36.858Z,18.13
2022-12-18T03:35:05.757Z,17.95
2022-12-18T03:37:38.050Z,18.67
2022-12-18T03:40:06.668Z,18.13
2022-12-18T03:42:49.881Z,12.32
2022-12-18T03:45:24.650Z,17.88
2022-12-18T03:48:00.301Z,17.23
2022-12-18T03:50:43.564Z,12.03
2022-12-18T03:53:28.273Z,15.23
2022-12-18T03:55:56.864Z,12.43
2022-12-18T03:58:27.601Z,16.73
2022-12-18T04:01:09.506Z,18.58
2022-12-18T04:03:39.362Z,18.57
2022-12-18T04:06:08.660Z,13.32
2022-12-18T04:08:36.188Z,17.75
2022-12-18T04:11:06.970Z,15.27
2022-12-18T04:13:39.325Z,15.80
2022-12-18T04:16:11.869Z,15.60
2022-12-18T04:18:42.172Z,13.98
2022-12-18T04:21:09.749Z,15.88
2022-12-18T04:23:38.174Z,11.70
2022-12-18T04:26:05.491Z,11.55
2022-12-18T04:28:55.736Z,12.73
2022-12-18T04:31:22.940Z,14.70
2022-12-18T04:33:50.629Z,17.50
2022-12-18T04:36:17.760Z,15.13
2022-12-18T04:38:46.461Z,12.98
2022-12-18T04:41:16.022Z,11.33
2022-12-18T04:43:45.830Z,11.77
2022-12-18T04:46:12.721Z,14.25
2022-12-18T04:48:40.254Z,10.40
2022-12-18T04:51:07.677Z,10.25
2022-12-18T04:53:34.959Z,11.50
2022-12-18T04:56:14.604Z,13.35
2022-12-18T04:58:44.987Z,12.65
2022-12-18T05:01:15.799Z,11.55
2022-12-18T05:03:43.744Z,11.95
2022-12-18T05:06:11.262Z,13.30
2022-12-18T05:08:38.536Z,12.30
2022-12-18T05:11:16.700Z,13.48
2022-12-18T05:13:45.627Z,15.38
2022-12-18T05:16:13.564Z,16.58
2022-12-18T05:18:41.008Z,14.40
2022-12-18T05:21:07.933Z,15.55
2022-12-18T05:23:35.758Z,16.73
2022-12-18T05:26:05.578Z,10.38
2022-12-18T05:28:35.332Z,13.20
2022-12-18T05:31:04.249Z,11.70
2022-12-18T05:33:34.499Z,11.02
2022-12-18T05:36:02.887Z,13.52
2022-12-18T05:38:32.052Z,13.85
2022-12-18T05:40:59.327Z,15.10
2022-12-18T05:43:27.550Z,15.30
2022-12-18T05:45:54.470Z,14.30
2022-12-18T05:48:21.975Z,14.70
2022-12-18T05:50:50.522Z,15.02
2022-12-18T05:53:20.445Z,18.35
2022-12-18T05:55:48.112Z,13.97
2022-12-18T05:58:15.920Z,16.92
2022-12-18T06:00:45.635Z,15.18
2022-12-18T06:03:14.405Z,13.73
2022-12-18T06:05:46.006Z,15.70
2022-12-18T06:08:14.481Z,15.33
2022-12-18T06:10:42.202Z,10.80
2022-12-18T06:13:09.613Z,9.43
2022-12-18T06:15:39.417Z,15.82
2022-12-18T06:18:06.553Z,16.23
2022-12-18T06:20:34.116Z,17.37
2022-12-18T06:23:01.656Z,16.23
2022-12-18T06:25:28.468Z,15.07
2022-12-18T06:27:55.813Z,13.70
2022-12-18T06:30:23.679Z,16.23
2022-12-18T06:32:56.416Z,18.17
2022-12-18T06:35:24.047Z,14.63
2022-12-18T06:37:51.258Z,13.27
2022-12-18T06:40:18.284Z,14.60
2022-12-18T06:42:45.397Z,13.82
2022-12-18T06:45:12.567Z,12.90
2022-12-18T06:47:39.740Z,15.00
2022-12-18T06:50:07.269Z,13.00
2022-12-18T06:52:34.863Z,11.38
2022-12-18T06:55:02.000Z,9.68
2022-12-18T06:57:29.353Z,10.93
2022-12-18T06:59:56.200Z,10.18
2022-12-18T07:02:23.436Z,8.50
2022-12-18T07:04:50.291Z,9.43
2022-12-18T07:07:17.416Z,9.00
2022-12-18T07:09:44.371Z,9.13
2022-12-18T07:12:11.601Z,11.95
2022-12-18T07:14:38.418Z,12.43
2022-12-18T07:17:05.852Z,13.18
2022-12-18T07:19:33.481Z,14.43
2022-12-18T07:22:01.513Z,16.40
2022-12-18T07:24:29.441Z,13.10
2022-12-18T07:26:56.559Z,12.52
2022-12-18T07:29:23.381Z,9.25
2022-12-18T07:31:50.660Z,10.75
2022-12-18T07:34:17.528Z,10.17
2022-12-18T07:36:44.661Z,10.13
2022-12-18T07:39:12.753Z,11.00
2022-12-18T07:41:46.810Z,8.43
2022-12-18T07:44:16.371Z,8.02
2022-12-18T07:46:43.516Z,10.90
2022-12-18T07:49:10.334Z,12.75
2022-12-18T07:51:37.484Z,14.63
2022-12-18T07:54:04.359Z,9.02
2022-12-18T07:56:31.770Z,11.85
2022-12-18T07:59:00.215Z,9.85
2022-12-18T08:01:28.174Z,8.07
2022-12-18T08:03:55.461Z,9.43
2022-12-18T08:06:23.997Z,8.73
2022-12-18T08:08:53.514Z,8.75
2022-12-18T08:11:21.445Z,8.27
2022-12-18T08:13:48.493Z,12.77
2022-12-18T08:16:17.495Z,16.10
2022-12-18T08:18:44.492Z,13.57
2022-12-18T08:21:22.287Z,13.93
2022-12-18T08:23:51.352Z,15.85
2022-12-18T08:26:19.825Z,11.93
2022-12-18T08:28:48.205Z,10.75
2022-12-18T08:31:15.690Z,12.00
2022-12-18T08:33:43.887Z,11.45
2022-12-18T08:36:11.700Z,10.65
2022-12-18T08:38:38.648Z,14.47
2022-12-18T08:41:08.401Z,9.45
2022-12-18T08:43:53.957Z,8.50
2022-12-18T08:46:23.358Z,7.75
2022-12-18T08:48:52.245Z,10.43
2022-12-18T08:51:20.578Z,10.27
2022-12-18T08:53:48.078Z,11.18
2022-12-18T08:56:16.235Z,11.07
2022-12-18T08:58:45.832Z,10.50
2022-12-18T09:01:13.783Z,10.98
2022-12-18T09:03:41.371Z,11.63
2022-12-18T09:06:09.575Z,10.70
2022-12-18T09:08:38.098Z,12.45
2022-12-18T09:11:05.616Z,11.27
2022-12-18T09:13:32.471Z,10.07
2022-12-18T09:15:59.912Z,12.07
2022-12-18T09:18:26.731Z,11.70
2022-12-18T09:20:54.142Z,12.20
2022-12-18T09:23:22.077Z,11.90
2022-12-18T09:25:49.559Z,11.63
2022-12-18T09:28:20.231Z,11.83
2022-12-18T09:30:50.626Z,10.98
2022-12-18T09:33:18.422Z,14.43
2022-12-18T09:35:46.804Z,15.45
2022-12-18T09:38:16.855Z,13.00
2022-12-18T09:40:46.781Z,13.20
2022-12-18T09:43:21.406Z,12.95
2022-12-18T09:46:11.373Z,12.73
2022-12-18T09:48:43.750Z,12.52
2022-12-18T09:51:29.711Z,12.27
2022-12-18T09:54:11.718Z,14.50
2022-12-18T09:56:42.459Z,12.57
2022-12-18T09:59:26.525Z,12.15
2022-12-18T10:01:53.799Z,10.65
2022-12-18T10:04:20.789Z,12.30
2022-12-18T10:06:55.913Z,10.40
2022-12-18T10:09:40.487Z,14.13
2022-12-18T10:12:28.888Z,16.83
2022-12-18T10:15:07.865Z,13.52
2022-12-18T10:17:43.999Z,14.82
2022-12-18T10:20:35.334Z,16.53
2022-12-18T10:23:18.263Z,16.20
2022-12-18T10:26:13.697Z,17.40
2022-12-18T10:28:43.250Z,17.38
2022-12-18T10:31:24.649Z,14.52
2022-12-18T10:33:55.279Z,15.23
2022-12-18T10:36:25.180Z,16.20
2022-12-18T10:38:52.944Z,16.75
2022-12-18T10:41:21.684Z,15.02
2022-12-18T10:43:49.383Z,12.73
2022-12-18T10:46:20.777Z,10.93
2022-12-18T10:48:47.942Z,14.75
2022-12-18T10:51:34.557Z,14.10
2022-12-18T10:54:06.667Z,15.95
2022-12-18T10:56:36.849Z,10.80
2022-12-18T10:59:09.723Z,13.80
2022-12-18T11:01:56.561Z,16.65
2022-12-18T11:04:32.639Z,13.52
2022-12-18T11:07:06.736Z,12.23
2022-12-18T11:09:35.211Z,11.38
2022-12-18T11:12:16.070Z,12.73
2022-12-18T11:14:52.820Z,16.20
2022-12-18T11:17:38.060Z,14.82
2022-12-18T11:20:10.591Z,15.70
2022-12-18T11:22:39.276Z,14.93
2022-12-18T11:25:35.467Z,14.90
2022-12-18T11:28:06.379Z,14.68
2022-12-18T11:30:37.786Z,15.32
2022-12-18T11:33:31.132Z,16.90
2022-12-18T11:36:03.783Z,15.90
2022-12-18T11:38:37.798Z,14.93
2022-12-18T11:41:22.344Z,13.75
2022-12-18T11:44:03.207Z,14.20
2022-12-18T11:46:37.789Z,14.25
2022-12-18T11:49:14.740Z,12.60
2022-12-18T11:51:51.565Z,12.70
2022-12-18T11:54:18.553Z,15.32
2022-12-18T11:56:57.238Z,11.98
2022-12-18T11:59:46.746Z,12.48
2022-12-18T12:02:22.829Z,9.98
2022-12-18T12:05:05.019Z,10.87
2022-12-18T12:07:49.656Z,10.82
2022-12-18T12:10:28.522Z,10.45
2022-12-18T12:13:33.295Z,12.43
2022-12-18T12:16:02.986Z,11.32
2022-12-18T12:19:01.179Z,18.77
2022-12-18T12:21:39.943Z,14.57
2022-12-18T12:24:10.102Z,12.52
2022-12-18T12:26:51.145Z,12.00
2022-12-18T12:29:27.469Z,11.57
2022-12-18T12:32:00.380Z,12.10
2022-12-18T12:35:01.017Z,11.57
2022-12-18T12:37:51.313Z,14.93
2022-12-18T12:40:50.173Z,15.35
2022-12-18T12:43:49.232Z,14.13
2022-12-18T12:46:20.821Z,14.07
2022-12-18T12:48:52.496Z,14.52
2022-12-18T12:51:24.013Z,12.98
2022-12-18T12:53:51.642Z,12.52
2022-12-18T12:56:21.115Z,14.45
2022-12-18T12:59:14.358Z,13.17
2022-12-18T13:01:44.452Z,15.75
2022-12-18T13:04:21.638Z,16.35
2022-12-18T13:07:09.276Z,15.88
2022-12-18T13:10:15.453Z,15.95
2022-12-18T13:12:58.303Z,11.77
2022-12-18T13:15:44.056Z,14.05
2022-12-18T13:18:11.273Z,10.93
2022-12-18T13:21:17.352Z,12.25
2022-12-18T13:23:45.039Z,14.50
2022-12-18T13:26:19.899Z,14.60
2022-12-18T13:28:55.320Z,12.57
2022-12-18T13:31:30.956Z,12.18
2022-12-18T13:34:26.283Z,11.40
2022-12-18T13:36:56.121Z,13.20
2022-12-18T13:39:32.760Z,14.83
2022-12-18T13:42:08.653Z,14.50
2022-12-18T13:44:41.439Z,12.23
2022-12-18T13:47:33.329Z,14.18
2022-12-18T13:50:10.046Z,14.45
2022-12-18T13:52:40.756Z,17.07
2022-12-18T13:55:17.459Z,12.90
2022-12-18T13:57:44.872Z,11.15
2022-12-18T14:00:18.250Z,11.13
2022-12-18T14:02:46.939Z,18.90
2022-12-18T14:05:33.651Z,12.20
2022-12-18T14:08:06.108Z,10.90
2022-12-18T14:10:44.436Z,12.77
2022-12-18T14:13:29.170Z,14.60
2022-12-18T14:15:58.993Z,15.90
2022-12-18T14:18:30.409Z,15.63
2022-12-18T14:21:02.941Z,15.30
2022-12-18T14:23:42.972Z,15.95
2022-12-18T14:26:24.531Z,10.88
2022-12-18T14:28:52.025Z,9.20
2022-12-18T14:31:25.302Z,13.87
2022-12-18T14:33:53.301Z,11.98
2022-12-18T14:36:23.550Z,14.10
2022-12-18T14:38:58.635Z,15.52
2022-12-18T14:41:27.271Z,11.63
2022-12-18T14:43:55.882Z,13.53
2022-12-18T14:46:26.117Z,18.02
2022-12-18T14:48:53.469Z,18.20
2022-12-18T14:51:23.044Z,14.52
2022-12-18T14:53:56.380Z,14.48
2022-12-18T14:56:26.523Z,15.10
2022-12-18T14:58:59.127Z,11.43
2022-12-18T15:01:29.318Z,15.57
2022-12-18T15:03:57.839Z,16.85
2022-12-18T15:06:34.622Z,16.83
2022-12-18T15:09:07.255Z,16.57
2022-12-18T15:11:47.129Z,14.15
2022-12-18T15:14:38.802Z,17.35
2022-12-18T15:17:15.765Z,19.83
2022-12-18T15:19:44.976Z,12.48
2022-12-18T15:22:38.673Z,17.07
2022-12-18T15:25:33.599Z,21.35
2022-12-18T15:28:00.953Z,22.17
2022-12-18T15:30:27.801Z,28.00
2022-12-18T15:33:23.317Z,19.50
2022-12-18T15:36:01.081Z,13.97
2022-12-18T15:38:29.005Z,13.07
2022-12-18T15:40:56.079Z,14.27
2022-12-18T15:43:37.620Z,12.85
2022-12-18T15:46:11.890Z,38.30
2022-12-18T15:48:44.624Z,13.20
2022-12-18T15:51:33.859Z,10.65
2022-12-18T15:54:04.890Z,9.20
2022-12-18T15:56:50.523Z,10.10
2022-12-18T15:59:19.628Z,11.43
2022-12-18T16:01:49.343Z,16.33
2022-12-18T16:04:21.102Z,44.60
2022-12-18T16:07:13.987Z,29.77
2022-12-18T16:09:36.745Z,15.52
2022-12-18T16:12:04.078Z,12.45
2022-12-18T16:14:32.738Z,23.60
2022-12-18T16:17:04.705Z,18.90
2022-12-18T16:19:32.123Z,17.67
2022-12-18T16:21:59.965Z,11.63
2022-12-18T16:24:30.000Z,10.43
2022-12-18T16:27:00.243Z,8.90
2022-12-18T16:29:29.354Z,13.05
2022-12-18T16:32:01.456Z,11.93
2022-12-18T16:34:34.903Z,9.32
2022-12-18T16:37:06.382Z,12.68
2022-12-18T16:39:37.926Z,13.30
2022-12-18T16:42:08.125Z,9.07
2022-12-18T16:44:35.993Z,14.55
2022-12-18T16:47:03.983Z,15.60
2022-12-18T16:49:31.249Z,15.00
2022-12-18T16:51:58.172Z,12.67
2022-12-18T16:54:25.516Z,11.15
2022-12-18T16:56:52.652Z,11.18
2022-12-18T16:59:20.012Z,9.80
2022-12-18T17:01:47.404Z,15.15
2022-12-18T17:04:15.427Z,13.50
2022-12-18T17:06:44.384Z,11.60
2022-12-18T17:09:15.532Z,8.65
2022-12-18T17:11:43.741Z,11.13
2022-12-18T17:14:16.468Z,11.40
2022-12-18T17:16:43.619Z,16.67
2022-12-18T17:19:16.797Z,16.30
2022-12-18T17:21:45.736Z,15.95
2022-12-18T17:24:13.286Z,14.50
2022-12-18T17:26:40.219Z,15.30
2022-12-18T17:29:08.037Z,14.53
2022-12-18T17:31:35.186Z,15.15
2022-12-18T17:34:03.312Z,15.73
2022-12-18T17:36:32.413Z,13.98
2022-12-18T17:39:01.887Z,11.75
2022-12-18T17:41:30.242Z,13.67
2022-12-18T17:44:03.572Z,14.10
2022-12-18T17:46:32.317Z,15.88
2022-12-18T17:49:01.313Z,14.13
2022-12-18T17:51:29.150Z,15.23
2022-12-18T17:53:57.716Z,16.47
2022-12-18T17:56:25.623Z,15.43
2022-12-18T17:58:53.285Z,11.93
2022-12-18T18:01:23.362Z,10.85
2022-12-18T18:03:53.478Z,12.70
2022-12-18T18:06:22.009Z,13.20
2022-12-18T18:08:50.776Z,12.90
2022-12-18T18:11:38.614Z,15.02
2022-12-18T18:14:12.178Z,16.30
2022-12-18T18:16:42.487Z,17.60
2022-12-18T18:19:12.116Z,16.13
2022-12-18T18:21:41.868Z,15.63
2022-12-18T18:24:11.731Z,19.38
2022-12-18T18:26:39.633Z,18.33
2022-12-18T18:29:08.013Z,15.73
2022-12-18T18:31:40.774Z,15.60
2022-12-18T18:34:14.280Z,15.38
2022-12-18T18:36:42.189Z,15.60
2022-12-18T18:39:09.446Z,15.18
2022-12-18T18:41:38.441Z,17.80
2022-12-18T18:44:06.963Z,17.83
2022-12-18T18:46:34.577Z,16.65
2022-12-18T18:49:01.882Z,19.25
2022-12-18T18:51:34.514Z,19.00
2022-12-18T18:54:02.722Z,18.58
2022-12-18T18:59:17.659Z,17.63
2022-12-18T19:01:44.838Z,14.15
2022-12-18T19:04:12.549Z,21.20
2022-12-18T19:06:39.762Z,21.38
2022-12-18T19:09:08.338Z,22.33
2022-12-18T19:11:54.203Z,17.88
2022-12-18T19:14:21.525Z,15.68
2022-12-18T19:16:48.467Z,14.85
2022-12-18T19:19:21.142Z,21.27
2022-12-18T19:21:48.313Z,21.53
2022-12-18T19:24:15.540Z,20.67
2022-12-18T19:26:42.408Z,22.80
2022-12-18T19:29:11.854Z,22.85
2022-12-18T19:31:40.587Z,23.25
2022-12-18T19:34:09.626Z,24.10
2022-12-18T19:36:38.827Z,21.58
2022-12-18T19:39:13.246Z,21.88
2022-12-18T19:41:41.204Z,21.85
2022-12-18T19:44:11.994Z,21.88
2022-12-18T19:46:41.652Z,18.30
2022-12-18T19:49:17.558Z,19.25
2022-12-18T19:51:45.549Z,22.60
2022-12-18T19:54:17.437Z,23.40
2022-12-18T19:56:45.707Z,26.50
2022-12-18T19:59:14.165Z,26.70
2022-12-18T20:01:41.482Z,23.83
2022-12-18T20:04:09.256Z,26.80
2022-12-18T20:06:50.590Z,26.30
2022-12-18T20:09:18.695Z,26.23
2022-12-18T20:11:47.331Z,27.40
2022-12-18T20:14:18.766Z,28.90
2022-12-18T20:16:51.987Z,27.13
2022-12-18T20:19:19.817Z,27.98
2022-12-18T20:21:47.693Z,26.15
2022-12-18T20:24:15.258Z,26.37
2022-12-18T20:26:42.252Z,25.25
2022-12-18T20:29:09.437Z,25.35
2022-12-18T20:31:36.308Z,24.83
2022-12-18T20:34:04.956Z,26.35
2022-12-18T20:36:34.226Z,26.43
2022-12-18T20:39:05.436Z,25.05
2022-12-18T20:41:38.511Z,25.15
2022-12-18T20:44:11.185Z,23.02
2022-12-18T20:46:55.383Z,23.92
2022-12-18T20:49:23.838Z,24.87
2022-12-18T20:51:52.753Z,24.65
2022-12-18T20:54:21.101Z,25.20
2022-12-18T20:56:48.347Z,24.85
2022-12-18T20:59:15.897Z,24.13
2022-12-18T21:01:48.432Z,23.03
2022-12-18T21:04:20.849Z,23.95
2022-12-18T21:06:54.227Z,22.88
2022-12-18T21:09:27.988Z,19.38
2022-12-18T21:12:17.125Z,16.60
2022-12-18T21:14:44.997Z,12.00
2022-12-18T21:17:12.441Z,17.55
2022-12-18T21:19:39.767Z,22.73
2022-12-18T21:22:06.896Z,23.30
2022-12-18T21:24:34.143Z,22.80
2022-12-18T21:27:01.888Z,23.43
2022-12-18T21:29:29.669Z,23.08
2022-12-18T21:31:57.098Z,22.25
2022-12-18T21:34:26.730Z,22.67
2022-12-18T21:36:55.296Z,22.38
2022-12-18T21:39:23.043Z,26.00
2022-12-18T21:42:09.241Z,23.85
2022-12-18T21:44:41.495Z,23.85
2022-12-18T21:47:15.163Z,22.75
2022-12-18T21:49:53.915Z,18.13
2022-12-18T21:52:29.808Z,19.90
2022-12-18T21:55:07.897Z,22.63
2022-12-18T21:57:36.181Z,17.50
2022-12-18T22:00:04.725Z,17.63
2022-12-18T22:02:38.891Z,22.58
2022-12-18T22:05:06.552Z,23.07
2022-12-18T22:07:33.988Z,23.55
2022-12-18T22:10:02.084Z,22.38
2022-12-18T22:12:36.420Z,24.92
2022-12-18T22:15:20.005Z,19.02
2022-12-18T22:17:50.212Z,22.03
2022-12-18T22:20:18.258Z,19.17
2022-12-18T22:22:48.109Z,21.95
2022-12-18T22:25:15.326Z,18.25
2022-12-18T22:27:42.433Z,19.92
2022-12-18T22:30:14.718Z,16.27
2022-12-18T22:32:41.552Z,19.85
2022-12-18T22:35:14.302Z,17.73
2022-12-18T22:37:42.789Z,18.00
2022-12-18T22:40:23.714Z,17.55
2022-12-18T22:42:51.311Z,19.53
2022-12-18T22:45:23.173Z,22.75
2022-12-18T22:47:50.365Z,19.05
2022-12-18T22:50:17.541Z,17.73
2022-12-18T22:52:44.333Z,16.23
2022-12-18T22:55:11.591Z,22.33
2022-12-18T22:57:40.635Z,24.15
2022-12-18T23:00:11.212Z,19.00
2022-12-18T23:02:38.161Z,23.17
2022-12-18T23:05:05.917Z,19.02
2022-12-18T23:07:32.693Z,16.77
2022-12-18T23:10:01.193Z,17.92
2022-12-18T23:12:28.404Z,15.25
2022-12-18T23:14:55.528Z,24.95
2022-12-18T23:17:22.466Z,23.95
2022-12-18T23:19:49.637Z,25.50
2022-12-18T23:22:17.380Z,20.42
2022-12-18T23:24:44.636Z,19.83
2022-12-18T23:27:12.170Z,17.08
2022-12-18T23:29:40.375Z,17.52
2022-12-18T23:32:08.023Z,17.27
2022-12-18T23:34:35.209Z,13.27
2022-12-18T23:37:03.803Z,16.48
2022-12-18T23:39:31.155Z,18.92
2022-12-18T23:41:59.281Z,16.50
2022-12-18T23:44:26.592Z,14.60
2022-12-18T23:46:53.513Z,16.65
2022-12-18T23:49:20.823Z,20.42
2022-12-18T23:51:47.863Z,16.60
2022-12-18T23:54:15.082Z,16.45
2022-12-18T23:56:42.191Z,14.17
2022-12-18T23:59:09.561Z,14.10
